sensor_id;sensor_type;location;lat;lon;timestamp;P1;durP1;ratioP1;P2;durP2;ratioP2
24157;SDS011;12316;50.904;4.200;2023-12-22T00:01:11;17.48;;;2.83;;
24157;SDS011;12316;50.904;4.200;2023-12-22T00:03:40;20.80;;;3.45;;
24157;SDS011;12316;50.904;4.200;2023-12-22T00:06:06;15.52;;;2.75;;
24157;SDS011;12316;50.904;4.200;2023-12-22T00:08:32;16.95;;;2.63;;
24157;SDS011;12316;50.904;4.200;2023-12-22T00:10:57;18.13;;;3.45;;
24157;SDS011;12316;50.904;4.200;2023-12-22T00:13:24;12.68;;;2.53;;
24157;SDS011;12316;50.904;4.200;2023-12-22T00:15:49;13.05;;;2.15;;
24157;SDS011;12316;50.904;4.200;2023-12-22T00:18:15;13.98;;;2.70;;
24157;SDS011;12316;50.904;4.200;2023-12-22T00:20:40;14.35;;;2.50;;
24157;SDS011;12316;50.904;4.200;2023-12-22T00:23:06;12.43;;;2.20;;
24157;SDS011;12316;50.904;4.200;2023-12-22T00:25:32;12.40;;;2.47;;
24157;SDS011;12316;50.904;4.200;2023-12-22T00:27:58;10.85;;;2.22;;
24157;SDS011;12316;50.904;4.200;2023-12-22T00:30:24;6.90;;;1.67;;
24157;SDS011;12316;50.904;4.200;2023-12-22T00:32:50;12.23;;;2.47;;
24157;SDS011;12316;50.904;4.200;2023-12-22T00:35:15;16.58;;;2.47;;
24157;SDS011;12316;50.904;4.200;2023-12-22T00:37:41;13.52;;;2.67;;
24157;SDS011;12316;50.904;4.200;2023-12-22T00:40:07;18.75;;;3.17;;
24157;SDS011;12316;50.904;4.200;2023-12-22T00:42:34;19.30;;;3.20;;
24157;SDS011;12316;50.904;4.200;2023-12-22T00:45:00;19.33;;;3.50;;
24157;SDS011;12316;50.904;4.200;2023-12-22T00:47:26;21.85;;;3.83;;
24157;SDS011;12316;50.904;4.200;2023-12-22T00:49:51;18.08;;;3.38;;
24157;SDS011;12316;50.904;4.200;2023-12-22T00:52:17;23.30;;;3.10;;
24157;SDS011;12316;50.904;4.200;2023-12-22T00:54:43;19.40;;;3.97;;
24157;SDS011;12316;50.904;4.200;2023-12-22T00:57:08;21.73;;;3.67;;
24157;SDS011;12316;50.904;4.200;2023-12-22T00:59:34;18.45;;;3.13;;
24157;SDS011;12316;50.904;4.200;2023-12-22T01:01:59;16.98;;;3.38;;
24157;SDS011;12316;50.904;4.200;2023-12-22T01:04:25;20.27;;;3.63;;
24157;SDS011;12316;50.904;4.200;2023-12-22T01:06:51;21.77;;;3.67;;
24157;SDS011;12316;50.904;4.200;2023-12-22T01:09:18;20.73;;;3.75;;
24157;SDS011;12316;50.904;4.200;2023-12-22T01:11:44;20.55;;;3.55;;
24157;SDS011;12316;50.904;4.200;2023-12-22T01:14:10;24.38;;;3.65;;
24157;SDS011;12316;50.904;4.200;2023-12-22T01:16:38;21.90;;;3.65;;
24157;SDS011;12316;50.904;4.200;2023-12-22T01:19:04;24.55;;;4.20;;
24157;SDS011;12316;50.904;4.200;2023-12-22T01:21:30;17.65;;;3.08;;
24157;SDS011;12316;50.904;4.200;2023-12-22T01:23:56;20.08;;;3.85;;
24157;SDS011;12316;50.904;4.200;2023-12-22T01:26:23;20.75;;;3.92;;
24157;SDS011;12316;50.904;4.200;2023-12-22T01:28:49;19.52;;;3.70;;
24157;SDS011;12316;50.904;4.200;2023-12-22T01:31:15;18.10;;;3.70;;
24157;SDS011;12316;50.904;4.200;2023-12-22T01:33:40;17.02;;;3.33;;
24157;SDS011;12316;50.904;4.200;2023-12-22T01:36:06;19.05;;;3.58;;
24157;SDS011;12316;50.904;4.200;2023-12-22T01:38:32;16.38;;;3.33;;
24157;SDS011;12316;50.904;4.200;2023-12-22T01:40:57;19.90;;;3.78;;
24157;SDS011;12316;50.904;4.200;2023-12-22T01:43:23;22.02;;;3.58;;
24157;SDS011;12316;50.904;4.200;2023-12-22T01:45:50;16.90;;;2.97;;
24157;SDS011;12316;50.904;4.200;2023-12-22T01:48:21;19.33;;;4.13;;
24157;SDS011;12316;50.904;4.200;2023-12-22T01:50:48;19.65;;;3.75;;
24157;SDS011;12316;50.904;4.200;2023-12-22T01:53:16;20.92;;;4.07;;
24157;SDS011;12316;50.904;4.200;2023-12-22T01:55:41;23.55;;;3.65;;
24157;SDS011;12316;50.904;4.200;2023-12-22T01:58:07;21.77;;;3.70;;
24157;SDS011;12316;50.904;4.200;2023-12-22T02:00:35;17.73;;;3.70;;
24157;SDS011;12316;50.904;4.200;2023-12-22T02:03:00;23.23;;;4.20;;
24157;SDS011;12316;50.904;4.200;2023-12-22T02:05:27;16.40;;;3.55;;
24157;SDS011;12316;50.904;4.200;2023-12-22T02:07:54;21.27;;;3.95;;
24157;SDS011;12316;50.904;4.200;2023-12-22T02:10:20;25.25;;;4.40;;
24157;SDS011;12316;50.904;4.200;2023-12-22T02:12:45;23.40;;;4.00;;
24157;SDS011;12316;50.904;4.200;2023-12-22T02:15:11;24.85;;;3.80;;
24157;SDS011;12316;50.904;4.200;2023-12-22T02:17:48;20.83;;;3.45;;
24157;SDS011;12316;50.904;4.200;2023-12-22T02:20:21;20.83;;;3.58;;
24157;SDS011;12316;50.904;4.200;2023-12-22T02:22:55;19.80;;;3.67;;
24157;SDS011;12316;50.904;4.200;2023-12-22T02:25:21;17.75;;;3.45;;
24157;SDS011;12316;50.904;4.200;2023-12-22T02:27:50;19.73;;;3.08;;
24157;SDS011;12316;50.904;4.200;2023-12-22T02:30:23;17.13;;;3.05;;
24157;SDS011;12316;50.904;4.200;2023-12-22T02:32:56;20.15;;;3.55;;
24157;SDS011;12316;50.904;4.200;2023-12-22T02:35:26;16.10;;;2.85;;
24157;SDS011;12316;50.904;4.200;2023-12-22T02:37:54;15.93;;;2.42;;
24157;SDS011;12316;50.904;4.200;2023-12-22T02:40:23;13.85;;;2.60;;
24157;SDS011;12316;50.904;4.200;2023-12-22T02:42:50;15.82;;;2.30;;
24157;SDS011;12316;50.904;4.200;2023-12-22T02:45:17;12.38;;;2.72;;
24157;SDS011;12316;50.904;4.200;2023-12-22T02:47:44;11.70;;;1.98;;
24157;SDS011;12316;50.904;4.200;2023-12-22T02:50:10;13.85;;;1.95;;
24157;SDS011;12316;50.904;4.200;2023-12-22T02:52:38;10.23;;;2.10;;
24157;SDS011;12316;50.904;4.200;2023-12-22T02:55:04;13.30;;;2.80;;
24157;SDS011;12316;50.904;4.200;2023-12-22T02:57:30;11.38;;;2.20;;
24157;SDS011;12316;50.904;4.200;2023-12-22T02:59:56;11.27;;;2.08;;
24157;SDS011;12316;50.904;4.200;2023-12-22T03:02:21;10.90;;;2.38;;
24157;SDS011;12316;50.904;4.200;2023-12-22T03:04:47;15.57;;;2.65;;
24157;SDS011;12316;50.904;4.200;2023-12-22T03:07:13;13.27;;;2.80;;
24157;SDS011;12316;50.904;4.200;2023-12-22T03:09:39;18.92;;;3.50;;
24157;SDS011;12316;50.904;4.200;2023-12-22T03:12:06;16.33;;;2.78;;
24157;SDS011;12316;50.904;4.200;2023-12-22T03:14:32;19.98;;;3.88;;
24157;SDS011;12316;50.904;4.200;2023-12-22T03:17:03;17.70;;;3.30;;
24157;SDS011;12316;50.904;4.200;2023-12-22T03:19:30;21.73;;;3.67;;
24157;SDS011;12316;50.904;4.200;2023-12-22T03:21:56;20.38;;;3.70;;
24157;SDS011;12316;50.904;4.200;2023-12-22T03:24:22;20.52;;;3.47;;
24157;SDS011;12316;50.904;4.200;2023-12-22T03:26:49;19.48;;;3.95;;
24157;SDS011;12316;50.904;4.200;2023-12-22T03:29:15;21.10;;;4.15;;
24157;SDS011;12316;50.904;4.200;2023-12-22T03:31:41;22.38;;;3.97;;
24157;SDS011;12316;50.904;4.200;2023-12-22T03:34:06;18.77;;;3.60;;
24157;SDS011;12316;50.904;4.200;2023-12-22T03:36:32;19.83;;;3.60;;
24157;SDS011;12316;50.904;4.200;2023-12-22T03:38:58;15.65;;;3.20;;
24157;SDS011;12316;50.904;4.200;2023-12-22T03:41:24;17.65;;;2.95;;
24157;SDS011;12316;50.904;4.200;2023-12-22T03:43:49;11.95;;;2.75;;
24157;SDS011;12316;50.904;4.200;2023-12-22T03:46:15;13.10;;;2.63;;
24157;SDS011;12316;50.904;4.200;2023-12-22T03:48:41;12.80;;;2.83;;
24157;SDS011;12316;50.904;4.200;2023-12-22T03:51:06;13.05;;;2.85;;
24157;SDS011;12316;50.904;4.200;2023-12-22T03:53:32;17.23;;;3.40;;
24157;SDS011;12316;50.904;4.200;2023-12-22T03:55:58;18.23;;;2.88;;
24157;SDS011;12316;50.904;4.200;2023-12-22T03:58:24;18.45;;;3.20;;
24157;SDS011;12316;50.904;4.200;2023-12-22T04:00:51;19.10;;;3.10;;
24157;SDS011;12316;50.904;4.200;2023-12-22T04:03:17;19.15;;;3.70;;
24157;SDS011;12316;50.904;4.200;2023-12-22T04:05:42;19.00;;;3.95;;
24157;SDS011;12316;50.904;4.200;2023-12-22T04:08:08;24.95;;;3.90;;
24157;SDS011;12316;50.904;4.200;2023-12-22T04:10:33;24.48;;;3.65;;
24157;SDS011;12316;50.904;4.200;2023-12-22T04:12:59;20.75;;;3.42;;
24157;SDS011;12316;50.904;4.200;2023-12-22T04:15:26;22.60;;;3.83;;
24157;SDS011;12316;50.904;4.200;2023-12-22T04:17:51;21.00;;;3.55;;
24157;SDS011;12316;50.904;4.200;2023-12-22T04:20:17;20.33;;;3.92;;
24157;SDS011;12316;50.904;4.200;2023-12-22T04:22:42;27.50;;;4.05;;
24157;SDS011;12316;50.904;4.200;2023-12-22T04:25:08;26.95;;;4.40;;
24157;SDS011;12316;50.904;4.200;2023-12-22T04:27:34;23.42;;;4.20;;
24157;SDS011;12316;50.904;4.200;2023-12-22T04:30:00;23.48;;;3.83;;
24157;SDS011;12316;50.904;4.200;2023-12-22T04:32:26;27.45;;;4.20;;
24157;SDS011;12316;50.904;4.200;2023-12-22T04:34:51;31.52;;;4.65;;
24157;SDS011;12316;50.904;4.200;2023-12-22T04:37:17;30.45;;;4.82;;
24157;SDS011;12316;50.904;4.200;2023-12-22T04:39:43;32.95;;;5.07;;
24157;SDS011;12316;50.904;4.200;2023-12-22T04:42:08;27.10;;;4.63;;
24157;SDS011;12316;50.904;4.200;2023-12-22T04:44:34;30.58;;;4.82;;
24157;SDS011;12316;50.904;4.200;2023-12-22T04:47:00;28.65;;;4.75;;
24157;SDS011;12316;50.904;4.200;2023-12-22T04:49:26;31.48;;;4.97;;
24157;SDS011;12316;50.904;4.200;2023-12-22T04:51:51;30.85;;;5.15;;
24157;SDS011;12316;50.904;4.200;2023-12-22T04:54:17;34.15;;;5.10;;
24157;SDS011;12316;50.904;4.200;2023-12-22T04:56:42;28.67;;;4.50;;
24157;SDS011;12316;50.904;4.200;2023-12-22T04:59:08;33.75;;;5.47;;
24157;SDS011;12316;50.904;4.200;2023-12-22T05:01:34;30.38;;;5.22;;
24157;SDS011;12316;50.904;4.200;2023-12-22T05:04:00;31.33;;;5.15;;
24157;SDS011;12316;50.904;4.200;2023-12-22T05:06:27;27.38;;;4.70;;
24157;SDS011;12316;50.904;4.200;2023-12-22T05:08:54;35.20;;;5.47;;
24157;SDS011;12316;50.904;4.200;2023-12-22T05:11:21;34.42;;;5.40;;
24157;SDS011;12316;50.904;4.200;2023-12-22T05:13:47;25.77;;;4.20;;
24157;SDS011;12316;50.904;4.200;2023-12-22T05:16:13;28.75;;;5.15;;
24157;SDS011;12316;50.904;4.200;2023-12-22T05:18:39;33.55;;;5.60;;
24157;SDS011;12316;50.904;4.200;2023-12-22T05:21:05;31.85;;;4.90;;
24157;SDS011;12316;50.904;4.200;2023-12-22T05:23:30;30.52;;;5.30;;
24157;SDS011;12316;50.904;4.200;2023-12-22T05:25:56;30.17;;;5.95;;
24157;SDS011;12316;50.904;4.200;2023-12-22T05:28:22;27.58;;;4.38;;
24157;SDS011;12316;50.904;4.200;2023-12-22T05:30:47;23.85;;;4.40;;
24157;SDS011;12316;50.904;4.200;2023-12-22T05:33:13;26.55;;;4.57;;
24157;SDS011;12316;50.904;4.200;2023-12-22T05:35:39;35.70;;;5.20;;
24157;SDS011;12316;50.904;4.200;2023-12-22T05:38:05;32.47;;;5.18;;
24157;SDS011;12316;50.904;4.200;2023-12-22T05:40:31;24.13;;;4.57;;
24157;SDS011;12316;50.904;4.200;2023-12-22T05:42:56;30.50;;;5.32;;
24157;SDS011;12316;50.904;4.200;2023-12-22T05:45:22;29.90;;;5.00;;
24157;SDS011;12316;50.904;4.200;2023-12-22T05:47:49;29.45;;;5.10;;
24157;SDS011;12316;50.904;4.200;2023-12-22T05:50:15;23.33;;;4.25;;
24157;SDS011;12316;50.904;4.200;2023-12-22T05:52:41;29.42;;;4.53;;
24157;SDS011;12316;50.904;4.200;2023-12-22T05:55:08;28.48;;;4.97;;
24157;SDS011;12316;50.904;4.200;2023-12-22T05:57:34;28.80;;;4.63;;
24157;SDS011;12316;50.904;4.200;2023-12-22T06:00:00;25.75;;;5.20;;
24157;SDS011;12316;50.904;4.200;2023-12-22T06:02:25;25.48;;;4.45;;
24157;SDS011;12316;50.904;4.200;2023-12-22T06:04:51;23.02;;;3.85;;
24157;SDS011;12316;50.904;4.200;2023-12-22T06:07:17;24.20;;;4.65;;
24157;SDS011;12316;50.904;4.200;2023-12-22T06:09:44;26.65;;;4.30;;
24157;SDS011;12316;50.904;4.200;2023-12-22T06:12:10;21.38;;;3.97;;
24157;SDS011;12316;50.904;4.200;2023-12-22T06:14:35;19.13;;;4.13;;
24157;SDS011;12316;50.904;4.200;2023-12-22T06:17:01;22.95;;;4.07;;
24157;SDS011;12316;50.904;4.200;2023-12-22T06:19:27;23.55;;;3.97;;
24157;SDS011;12316;50.904;4.200;2023-12-22T06:21:55;16.63;;;3.60;;
24157;SDS011;12316;50.904;4.200;2023-12-22T06:24:22;20.75;;;3.67;;
24157;SDS011;12316;50.904;4.200;2023-12-22T06:26:48;21.73;;;3.35;;
24157;SDS011;12316;50.904;4.200;2023-12-22T06:29:14;20.90;;;3.38;;
24157;SDS011;12316;50.904;4.200;2023-12-22T06:31:40;20.83;;;3.47;;
24157;SDS011;12316;50.904;4.200;2023-12-22T06:34:06;19.10;;;3.35;;
24157;SDS011;12316;50.904;4.200;2023-12-22T06:36:32;13.27;;;3.10;;
24157;SDS011;12316;50.904;4.200;2023-12-22T06:38:57;12.77;;;2.53;;
24157;SDS011;12316;50.904;4.200;2023-12-22T06:41:29;20.05;;;3.20;;
24157;SDS011;12316;50.904;4.200;2023-12-22T06:43:56;14.73;;;2.85;;
24157;SDS011;12316;50.904;4.200;2023-12-22T06:46:24;19.58;;;3.08;;
24157;SDS011;12316;50.904;4.200;2023-12-22T06:48:51;17.92;;;2.78;;
24157;SDS011;12316;50.904;4.200;2023-12-22T06:53:49;12.35;;;2.28;;
24157;SDS011;12316;50.904;4.200;2023-12-22T06:56:16;16.00;;;2.83;;
24157;SDS011;12316;50.904;4.200;2023-12-22T06:58:42;12.70;;;2.63;;
24157;SDS011;12316;50.904;4.200;2023-12-22T07:01:08;12.38;;;2.15;;
24157;SDS011;12316;50.904;4.200;2023-12-22T07:03:33;12.00;;;2.40;;
24157;SDS011;12316;50.904;4.200;2023-12-22T07:05:59;18.50;;;2.50;;
24157;SDS011;12316;50.904;4.200;2023-12-22T07:08:25;14.13;;;2.58;;
24157;SDS011;12316;50.904;4.200;2023-12-22T07:10:50;13.18;;;2.25;;
24157;SDS011;12316;50.904;4.200;2023-12-22T07:13:16;13.05;;;2.33;;
24157;SDS011;12316;50.904;4.200;2023-12-22T07:15:41;13.82;;;2.55;;
24157;SDS011;12316;50.904;4.200;2023-12-22T07:18:07;11.18;;;2.40;;
24157;SDS011;12316;50.904;4.200;2023-12-22T07:20:33;8.50;;;2.10;;
24157;SDS011;12316;50.904;4.200;2023-12-22T07:22:58;12.43;;;2.33;;
24157;SDS011;12316;50.904;4.200;2023-12-22T07:25:24;9.80;;;2.47;;
24157;SDS011;12316;50.904;4.200;2023-12-22T07:27:50;11.15;;;2.63;;
24157;SDS011;12316;50.904;4.200;2023-12-22T07:30:16;10.18;;;2.53;;
24157;SDS011;12316;50.904;4.200;2023-12-22T07:32:45;10.02;;;2.17;;
24157;SDS011;12316;50.904;4.200;2023-12-22T07:35:13;8.38;;;2.10;;
24157;SDS011;12316;50.904;4.200;2023-12-22T07:37:40;9.55;;;2.17;;
24157;SDS011;12316;50.904;4.200;2023-12-22T07:40:05;5.93;;;2.13;;
24157;SDS011;12316;50.904;4.200;2023-12-22T07:42:32;7.30;;;2.20;;
24157;SDS011;12316;50.904;4.200;2023-12-22T07:44:57;4.60;;;1.88;;
24157;SDS011;12316;50.904;4.200;2023-12-22T07:47:23;4.60;;;1.92;;
24157;SDS011;12316;50.904;4.200;2023-12-22T07:49:49;6.88;;;2.10;;
24157;SDS011;12316;50.904;4.200;2023-12-22T07:52:15;9.18;;;2.03;;
24157;SDS011;12316;50.904;4.200;2023-12-22T07:54:40;4.25;;;1.60;;
24157;SDS011;12316;50.904;4.200;2023-12-22T07:57:06;7.05;;;1.95;;
24157;SDS011;12316;50.904;4.200;2023-12-22T07:59:32;6.05;;;1.70;;
24157;SDS011;12316;50.904;4.200;2023-12-22T08:01:57;5.38;;;1.90;;
24157;SDS011;12316;50.904;4.200;2023-12-22T08:04:23;7.55;;;1.92;;
24157;SDS011;12316;50.904;4.200;2023-12-22T08:06:49;6.28;;;2.42;;
24157;SDS011;12316;50.904;4.200;2023-12-22T08:09:14;6.75;;;2.75;;
24157;SDS011;12316;50.904;4.200;2023-12-22T08:11:40;6.55;;;3.13;;
24157;SDS011;12316;50.904;4.200;2023-12-22T08:14:06;6.32;;;3.13;;
24157;SDS011;12316;50.904;4.200;2023-12-22T08:16:32;8.18;;;3.33;;
24157;SDS011;12316;50.904;4.200;2023-12-22T08:18:57;9.43;;;3.63;;
24157;SDS011;12316;50.904;4.200;2023-12-22T08:21:23;8.23;;;3.60;;
24157;SDS011;12316;50.904;4.200;2023-12-22T08:23:49;5.80;;;3.33;;
24157;SDS011;12316;50.904;4.200;2023-12-22T08:26:14;7.88;;;3.55;;
24157;SDS011;12316;50.904;4.200;2023-12-22T08:28:42;6.63;;;3.80;;
24157;SDS011;12316;50.904;4.200;2023-12-22T08:31:08;5.85;;;3.83;;
24157;SDS011;12316;50.904;4.200;2023-12-22T08:33:33;8.20;;;4.30;;
24157;SDS011;12316;50.904;4.200;2023-12-22T08:35:59;7.35;;;4.47;;
24157;SDS011;12316;50.904;4.200;2023-12-22T08:38:25;9.85;;;5.00;;
24157;SDS011;12316;50.904;4.200;2023-12-22T08:40:51;7.30;;;4.93;;
24157;SDS011;12316;50.904;4.200;2023-12-22T08:43:19;7.07;;;5.10;;
24157;SDS011;12316;50.904;4.200;2023-12-22T08:45:44;9.02;;;5.50;;
24157;SDS011;12316;50.904;4.200;2023-12-22T08:48:10;11.55;;;5.95;;
24157;SDS011;12316;50.904;4.200;2023-12-22T08:50:36;12.27;;;5.35;;
24157;SDS011;12316;50.904;4.200;2023-12-22T08:53:01;10.20;;;5.35;;
24157;SDS011;12316;50.904;4.200;2023-12-22T08:55:27;14.02;;;5.07;;
24157;SDS011;12316;50.904;4.200;2023-12-22T08:57:53;11.07;;;4.65;;
24157;SDS011;12316;50.904;4.200;2023-12-22T09:00:18;12.15;;;4.38;;
24157;SDS011;12316;50.904;4.200;2023-12-22T09:02:44;10.60;;;4.20;;
24157;SDS011;12316;50.904;4.200;2023-12-22T09:05:10;7.57;;;3.97;;
24157;SDS011;12316;50.904;4.200;2023-12-22T09:07:35;10.02;;;3.80;;
24157;SDS011;12316;50.904;4.200;2023-12-22T09:10:02;9.57;;;3.10;;
24157;SDS011;12316;50.904;4.200;2023-12-22T09:12:29;6.90;;;3.28;;
24157;SDS011;12316;50.904;4.200;2023-12-22T09:14:55;6.80;;;2.85;;
24157;SDS011;12316;50.904;4.200;2023-12-22T09:17:21;7.35;;;2.72;;
24157;SDS011;12316;50.904;4.200;2023-12-22T09:19:46;8.80;;;2.67;;
24157;SDS011;12316;50.904;4.200;2023-12-22T09:22:12;7.63;;;2.30;;
24157;SDS011;12316;50.904;4.200;2023-12-22T09:24:38;8.68;;;2.58;;
24157;SDS011;12316;50.904;4.200;2023-12-22T09:27:03;7.80;;;2.05;;
24157;SDS011;12316;50.904;4.200;2023-12-22T09:29:30;6.85;;;1.95;;
24157;SDS011;12316;50.904;4.200;2023-12-22T09:32:00;7.85;;;2.13;;
24157;SDS011;12316;50.904;4.200;2023-12-22T09:34:26;9.98;;;2.13;;
24157;SDS011;12316;50.904;4.200;2023-12-22T09:36:55;4.38;;;1.60;;
24157;SDS011;12316;50.904;4.200;2023-12-22T09:39:21;6.38;;;1.70;;
24157;SDS011;12316;50.904;4.200;2023-12-22T09:41:47;4.97;;;1.60;;
24157;SDS011;12316;50.904;4.200;2023-12-22T09:44:15;5.47;;;1.60;;
24157;SDS011;12316;50.904;4.200;2023-12-22T09:46:45;5.45;;;1.52;;
24157;SDS011;12316;50.904;4.200;2023-12-22T09:49:16;5.80;;;1.77;;
24157;SDS011;12316;50.904;4.200;2023-12-22T09:51:44;8.13;;;1.50;;
24157;SDS011;12316;50.904;4.200;2023-12-22T09:54:10;4.50;;;1.35;;
24157;SDS011;12316;50.904;4.200;2023-12-22T09:56:37;7.78;;;1.88;;
24157;SDS011;12316;50.904;4.200;2023-12-22T09:59:13;6.40;;;1.25;;
24157;SDS011;12316;50.904;4.200;2023-12-22T10:01:42;6.80;;;1.50;;
24157;SDS011;12316;50.904;4.200;2023-12-22T10:04:10;6.88;;;1.73;;
24157;SDS011;12316;50.904;4.200;2023-12-22T10:06:37;3.17;;;1.20;;
24157;SDS011;12316;50.904;4.200;2023-12-22T10:09:03;3.10;;;1.10;;
24157;SDS011;12316;50.904;4.200;2023-12-22T10:11:32;5.05;;;1.10;;
24157;SDS011;12316;50.904;4.200;2023-12-22T10:13:59;4.32;;;1.42;;
24157;SDS011;12316;50.904;4.200;2023-12-22T10:16:27;3.58;;;1.20;;
24157;SDS011;12316;50.904;4.200;2023-12-22T10:18:53;4.25;;;1.40;;
24157;SDS011;12316;50.904;4.200;2023-12-22T10:21:18;6.20;;;1.45;;
24157;SDS011;12316;50.904;4.200;2023-12-22T10:23:44;4.57;;;1.50;;
24157;SDS011;12316;50.904;4.200;2023-12-22T10:26:13;5.18;;;1.65;;
24157;SDS011;12316;50.904;4.200;2023-12-22T10:28:38;4.97;;;1.52;;
24157;SDS011;12316;50.904;4.200;2023-12-22T10:31:06;5.40;;;1.88;;
24157;SDS011;12316;50.904;4.200;2023-12-22T10:33:32;4.47;;;1.90;;
24157;SDS011;12316;50.904;4.200;2023-12-22T10:35:59;4.20;;;1.45;;
24157;SDS011;12316;50.904;4.200;2023-12-22T10:38:25;6.72;;;2.13;;
24157;SDS011;12316;50.904;4.200;2023-12-22T10:41:00;4.55;;;1.67;;
24157;SDS011;12316;50.904;4.200;2023-12-22T10:43:27;10.10;;;1.65;;
24157;SDS011;12316;50.904;4.200;2023-12-22T10:45:52;4.22;;;1.50;;
24157;SDS011;12316;50.904;4.200;2023-12-22T10:48:18;5.47;;;1.60;;
24157;SDS011;12316;50.904;4.200;2023-12-22T10:50:44;2.90;;;1.33;;
24157;SDS011;12316;50.904;4.200;2023-12-22T10:53:12;9.07;;;1.60;;
24157;SDS011;12316;50.904;4.200;2023-12-22T10:55:37;6.78;;;1.50;;
24157;SDS011;12316;50.904;4.200;2023-12-22T10:58:03;4.03;;;1.40;;
24157;SDS011;12316;50.904;4.200;2023-12-22T11:00:32;4.68;;;1.30;;
24157;SDS011;12316;50.904;4.200;2023-12-22T11:03:00;5.50;;;1.33;;
24157;SDS011;12316;50.904;4.200;2023-12-22T11:05:29;7.47;;;1.23;;
24157;SDS011;12316;50.904;4.200;2023-12-22T11:07:57;4.35;;;1.48;;
24157;SDS011;12316;50.904;4.200;2023-12-22T11:10:28;5.57;;;1.27;;
24157;SDS011;12316;50.904;4.200;2023-12-22T11:12:57;3.35;;;1.20;;
24157;SDS011;12316;50.904;4.200;2023-12-22T11:15:24;5.65;;;1.40;;
24157;SDS011;12316;50.904;4.200;2023-12-22T11:17:52;7.75;;;1.27;;
24157;SDS011;12316;50.904;4.200;2023-12-22T11:20:20;5.43;;;1.10;;
24157;SDS011;12316;50.904;4.200;2023-12-22T11:22:48;5.13;;;1.42;;
24157;SDS011;12316;50.904;4.200;2023-12-22T11:25:16;6.05;;;1.30;;
24157;SDS011;12316;50.904;4.200;2023-12-22T11:27:43;4.03;;;1.20;;
24157;SDS011;12316;50.904;4.200;2023-12-22T11:30:12;3.95;;;1.00;;
24157;SDS011;12316;50.904;4.200;2023-12-22T11:32:39;3.38;;;0.93;;
24157;SDS011;12316;50.904;4.200;2023-12-22T11:35:05;3.35;;;0.93;;
24157;SDS011;12316;50.904;4.200;2023-12-22T11:37:33;3.53;;;1.15;;
24157;SDS011;12316;50.904;4.200;2023-12-22T11:40:01;2.83;;;0.93;;
24157;SDS011;12316;50.904;4.200;2023-12-22T11:42:28;3.60;;;1.00;;
24157;SDS011;12316;50.904;4.200;2023-12-22T11:45:01;3.63;;;1.13;;
24157;SDS011;12316;50.904;4.200;2023-12-22T11:47:28;4.88;;;1.17;;
24157;SDS011;12316;50.904;4.200;2023-12-22T11:49:53;5.85;;;1.10;;
24157;SDS011;12316;50.904;4.200;2023-12-22T11:52:24;3.67;;;1.35;;
24157;SDS011;12316;50.904;4.200;2023-12-22T11:54:53;3.95;;;1.10;;
24157;SDS011;12316;50.904;4.200;2023-12-22T12:00:02;6.22;;;1.10;;
24157;SDS011;12316;50.904;4.200;2023-12-22T12:02:56;2.45;;;0.60;;
24157;SDS011;12316;50.904;4.200;2023-12-22T12:05:22;5.78;;;0.90;;
24157;SDS011;12316;50.904;4.200;2023-12-22T12:07:48;3.17;;;0.90;;
24157;SDS011;12316;50.904;4.200;2023-12-22T12:13:11;2.97;;;0.80;;
24157;SDS011;12316;50.904;4.200;2023-12-22T12:15:40;6.32;;;1.10;;
24157;SDS011;12316;50.904;4.200;2023-12-22T12:18:07;4.40;;;0.85;;
24157;SDS011;12316;50.904;4.200;2023-12-22T12:20:34;4.35;;;0.95;;
24157;SDS011;12316;50.904;4.200;2023-12-22T12:23:03;6.47;;;1.00;;
24157;SDS011;12316;50.904;4.200;2023-12-22T12:25:29;4.90;;;1.10;;
24157;SDS011;12316;50.904;4.200;2023-12-22T12:28:04;3.90;;;0.80;;
24157;SDS011;12316;50.904;4.200;2023-12-22T12:30:31;4.90;;;1.10;;
24157;SDS011;12316;50.904;4.200;2023-12-22T12:33:07;9.88;;;1.25;;
24157;SDS011;12316;50.904;4.200;2023-12-22T12:35:33;3.65;;;0.90;;
24157;SDS011;12316;50.904;4.200;2023-12-22T12:38:00;7.53;;;0.88;;
24157;SDS011;12316;50.904;4.200;2023-12-22T12:40:26;4.30;;;1.27;;
24157;SDS011;12316;50.904;4.200;2023-12-22T12:42:57;4.80;;;1.07;;
24157;SDS011;12316;50.904;4.200;2023-12-22T12:45:24;4.28;;;1.02;;
24157;SDS011;12316;50.904;4.200;2023-12-22T12:48:02;5.28;;;1.20;;
24157;SDS011;12316;50.904;4.200;2023-12-22T12:50:28;3.72;;;1.00;;
24157;SDS011;12316;50.904;4.200;2023-12-22T12:52:56;4.95;;;0.93;;
24157;SDS011;12316;50.904;4.200;2023-12-22T12:55:23;6.07;;;1.33;;
24157;SDS011;12316;50.904;4.200;2023-12-22T12:57:50;9.15;;;1.35;;
24157;SDS011;12316;50.904;4.200;2023-12-22T13:00:29;7.95;;;1.27;;
24157;SDS011;12316;50.904;4.200;2023-12-22T13:02:59;10.40;;;1.30;;
24157;SDS011;12316;50.904;4.200;2023-12-22T13:05:30;4.50;;;1.25;;
24157;SDS011;12316;50.904;4.200;2023-12-22T13:10:37;5.95;;;1.50;;
24157;SDS011;12316;50.904;4.200;2023-12-22T13:13:03;4.47;;;1.10;;
24157;SDS011;12316;50.904;4.200;2023-12-22T13:15:29;5.43;;;1.30;;
24157;SDS011;12316;50.904;4.200;2023-12-22T13:17:55;5.40;;;1.40;;
24157;SDS011;12316;50.904;4.200;2023-12-22T13:20:21;7.53;;;1.30;;
24157;SDS011;12316;50.904;4.200;2023-12-22T13:22:47;6.10;;;1.30;;
24157;SDS011;12316;50.904;4.200;2023-12-22T13:25:13;6.63;;;1.55;;
24157;SDS011;12316;50.904;4.200;2023-12-22T13:27:49;5.55;;;1.42;;
24157;SDS011;12316;50.904;4.200;2023-12-22T13:30:31;5.80;;;1.05;;
24157;SDS011;12316;50.904;4.200;2023-12-22T13:32:58;4.10;;;1.08;;
24157;SDS011;12316;50.904;4.200;2023-12-22T13:35:24;5.70;;;0.98;;
24157;SDS011;12316;50.904;4.200;2023-12-22T13:37:51;7.68;;;1.35;;
24157;SDS011;12316;50.904;4.200;2023-12-22T13:40:16;4.32;;;1.00;;
24157;SDS011;12316;50.904;4.200;2023-12-22T13:42:42;4.97;;;1.13;;
24157;SDS011;12316;50.904;4.200;2023-12-22T13:45:11;7.28;;;0.90;;
24157;SDS011;12316;50.904;4.200;2023-12-22T13:47:43;3.28;;;0.98;;
24157;SDS011;12316;50.904;4.200;2023-12-22T13:50:15;5.97;;;1.10;;
24157;SDS011;12316;50.904;4.200;2023-12-22T13:52:41;3.88;;;0.90;;
24157;SDS011;12316;50.904;4.200;2023-12-22T13:55:12;5.00;;;1.10;;
24157;SDS011;12316;50.904;4.200;2023-12-22T13:57:39;3.78;;;0.85;;
24157;SDS011;12316;50.904;4.200;2023-12-22T14:02:47;7.13;;;1.05;;
24157;SDS011;12316;50.904;4.200;2023-12-22T14:05:16;4.95;;;0.98;;
24157;SDS011;12316;50.904;4.200;2023-12-22T14:07:45;6.82;;;1.10;;
24157;SDS011;12316;50.904;4.200;2023-12-22T14:10:12;5.53;;;1.17;;
24157;SDS011;12316;50.904;4.200;2023-12-22T14:12:38;8.20;;;1.52;;
24157;SDS011;12316;50.904;4.200;2023-12-22T14:15:08;4.80;;;1.20;;
24157;SDS011;12316;50.904;4.200;2023-12-22T14:17:35;4.43;;;1.25;;
24157;SDS011;12316;50.904;4.200;2023-12-22T14:20:01;6.00;;;1.30;;
24157;SDS011;12316;50.904;4.200;2023-12-22T14:22:29;6.00;;;1.33;;
24157;SDS011;12316;50.904;4.200;2023-12-22T14:24:55;5.47;;;1.35;;
24157;SDS011;12316;50.904;4.200;2023-12-22T14:27:24;4.47;;;1.13;;
24157;SDS011;12316;50.904;4.200;2023-12-22T14:29:50;3.42;;;0.80;;
24157;SDS011;12316;50.904;4.200;2023-12-22T14:32:16;5.85;;;1.15;;
24157;SDS011;12316;50.904;4.200;2023-12-22T14:34:44;6.25;;;1.20;;
24157;SDS011;12316;50.904;4.200;2023-12-22T14:37:10;7.68;;;1.27;;
24157;SDS011;12316;50.904;4.200;2023-12-22T14:39:36;4.60;;;1.15;;
24157;SDS011;12316;50.904;4.200;2023-12-22T14:42:03;6.47;;;1.30;;
24157;SDS011;12316;50.904;4.200;2023-12-22T14:44:28;5.07;;;1.13;;
24157;SDS011;12316;50.904;4.200;2023-12-22T14:46:54;5.57;;;1.77;;
24157;SDS011;12316;50.904;4.200;2023-12-22T14:49:20;5.05;;;1.58;;
24157;SDS011;12316;50.904;4.200;2023-12-22T14:51:46;5.93;;;2.00;;